sensor_id;sensor_type;location;lat;lon;timestamp;temperature;humidity
12384;DHT22;6256;63.808;20.336;2023-02-15T00:01:24;1.20;99.90
12384;DHT22;6256;63.808;20.336;2023-02-15T00:03:50;1.20;99.90
12384;DHT22;6256;63.808;20.336;2023-02-15T00:06:17;1.20;99.90
12384;DHT22;6256;63.808;20.336;2023-02-15T00:08:42;1.20;99.90
12384;DHT22;6256;63.808;20.336;2023-02-15T00:11:14;1.30;99.90
12384;DHT22;6256;63.808;20.336;2023-02-15T00:13:40;1.30;99.90
12384;DHT22;6256;63.808;20.336;2023-02-15T00:16:11;1.30;99.90
12384;DHT22;6256;63.808;20.336;2023-02-15T00:18:38;1.30;99.90
12384;DHT22;6256;63.808;20.336;2023-02-15T00:21:07;1.30;99.90
12384;DHT22;6256;63.808;20.336;2023-02-15T00:23:34;1.20;99.90
12384;DHT22;6256;63.808;20.336;2023-02-15T00:26:07;1.20;99.90
12384;DHT22;6256;63.808;20.336;2023-02-15T00:28:34;1.20;99.90
12384;DHT22;6256;63.808;20.336;2023-02-15T00:31:07;1.10;99.90
12384;DHT22;6256;63.808;20.336;2023-02-15T00:33:34;1.00;99.90
12384;DHT22;6256;63.808;20.336;2023-02-15T00:36:00;1.00;99.90
12384;DHT22;6256;63.808;20.336;2023-02-15T00:38:27;0.90;99.90
12384;DHT22;6256;63.808;20.336;2023-02-15T00:40:54;0.90;99.90
12384;DHT22;6256;63.808;20.336;2023-02-15T00:43:20;0.80;99.90
12384;DHT22;6256;63.808;20.336;2023-02-15T00:45:46;0.80;99.90
12384;DHT22;6256;63.808;20.336;2023-02-15T00:48:12;0.70;99.90
12384;DHT22;6256;63.808;20.336;2023-02-15T00:50:38;0.70;99.90
12384;DHT22;6256;63.808;20.336;2023-02-15T00:53:04;0.70;99.90
12384;DHT22;6256;63.808;20.336;2023-02-15T00:55:29;0.60;99.90
12384;DHT22;6256;63.808;20.336;2023-02-15T00:57:55;0.60;99.90
12384;DHT22;6256;63.808;20.336;2023-02-15T01:00:20;0.50;99.90
12384;DHT22;6256;63.808;20.336;2023-02-15T01:02:46;0.40;99.90
12384;DHT22;6256;63.808;20.336;2023-02-15T01:05:12;0.40;99.90
12384;DHT22;6256;63.808;20.336;2023-02-15T01:07:38;0.30;99.90
12384;DHT22;6256;63.808;20.336;2023-02-15T01:10:06;0.30;99.90
12384;DHT22;6256;63.808;20.336;2023-02-15T01:12:32;0.20;99.90
12384;DHT22;6256;63.808;20.336;2023-02-15T01:14:58;0.20;99.90
12384;DHT22;6256;63.808;20.336;2023-02-15T01:17:24;0.10;99.90
12384;DHT22;6256;63.808;20.336;2023-02-15T01:19:49;0.10;99.90
12384;DHT22;6256;63.808;20.336;2023-02-15T01:22:19;0.10;99.90
12384;DHT22;6256;63.808;20.336;2023-02-15T01:24:45;0.00;99.90
12384;DHT22;6256;63.808;20.336;2023-02-15T01:27:11;-0.10;99.90
12384;DHT22;6256;63.808;20.336;2023-02-15T01:29:36;-0.10;99.90
12384;DHT22;6256;63.808;20.336;2023-02-15T01:32:02;-0.10;99.90
12384;DHT22;6256;63.808;20.336;2023-02-15T01:34:29;-0.10;99.90
12384;DHT22;6256;63.808;20.336;2023-02-15T01:36:54;-0.20;99.90
12384;DHT22;6256;63.808;20.336;2023-02-15T01:39:20;-0.30;99.90
12384;DHT22;6256;63.808;20.336;2023-02-15T01:41:46;-0.30;99.90
12384;DHT22;6256;63.808;20.336;2023-02-15T01:44:40;-0.40;99.90
12384;DHT22;6256;63.808;20.336;2023-02-15T01:47:14;-0.40;99.90
12384;DHT22;6256;63.808;20.336;2023-02-15T01:49:42;-0.50;99.90
12384;DHT22;6256;63.808;20.336;2023-02-15T01:52:12;-0.50;99.90
12384;DHT22;6256;63.808;20.336;2023-02-15T01:54:39;-0.60;99.90
12384;DHT22;6256;63.808;20.336;2023-02-15T01:57:10;-0.60;99.90
12384;DHT22;6256;63.808;20.336;2023-02-15T01:59:39;-0.70;99.90
12384;DHT22;6256;63.808;20.336;2023-02-15T02:02:09;-0.70;99.90
12384;DHT22;6256;63.808;20.336;2023-02-15T02:07:02;-0.80;99.90
12384;DHT22;6256;63.808;20.336;2023-02-15T02:09:30;-0.90;99.90
12384;DHT22;6256;63.808;20.336;2023-02-15T02:11:55;-0.90;99.90
12384;DHT22;6256;63.808;20.336;2023-02-15T02:14:22;-0.90;99.90
12384;DHT22;6256;63.808;20.336;2023-02-15T02:22:50;-1.10;99.90
12384;DHT22;6256;63.808;20.336;2023-02-15T02:34:30;-1.20;99.90
12384;DHT22;6256;63.808;20.336;2023-02-15T02:37:45;-1.20;99.90
12384;DHT22;6256;63.808;20.336;2023-02-15T02:47:35;-1.20;99.90
12384;DHT22;6256;63.808;20.336;2023-02-15T02:50:08;-1.10;99.90
12384;DHT22;6256;63.808;20.336;2023-02-15T03:00:22;-1.20;99.90
12384;DHT22;6256;63.808;20.336;2023-02-15T03:02:53;-1.30;99.90
12384;DHT22;6256;63.808;20.336;2023-02-15T03:05:24;-1.30;99.90
12384;DHT22;6256;63.808;20.336;2023-02-15T03:07:51;-1.20;99.90
12384;DHT22;6256;63.808;20.336;2023-02-15T03:10:21;-1.30;99.90
12384;DHT22;6256;63.808;20.336;2023-02-15T03:12:48;-1.40;99.90
12384;DHT22;6256;63.808;20.336;2023-02-15T03:15:27;-1.30;99.90
12384;DHT22;6256;63.808;20.336;2023-02-15T03:18:14;-1.30;99.90
12384;DHT22;6256;63.808;20.336;2023-02-15T03:20:41;-1.30;99.90
12384;DHT22;6256;63.808;20.336;2023-02-15T03:23:14;-1.30;99.90
12384;DHT22;6256;63.808;20.336;2023-02-15T03:25:44;-1.40;99.90
12384;DHT22;6256;63.808;20.336;2023-02-15T03:28:17;-1.50;99.90
12384;DHT22;6256;63.808;20.336;2023-02-15T03:30:47;-1.50;99.90
12384;DHT22;6256;63.808;20.336;2023-02-15T03:33:15;-1.50;99.90
12384;DHT22;6256;63.808;20.336;2023-02-15T03:38:20;-1.50;99.90
12384;DHT22;6256;63.808;20.336;2023-02-15T03:40:47;-1.50;99.90
12384;DHT22;6256;63.808;20.336;2023-02-15T03:48:50;-1.70;99.90
12384;DHT22;6256;63.808;20.336;2023-02-15T03:51:23;-1.70;99.90
12384;DHT22;6256;63.808;20.336;2023-02-15T03:54:14;-1.70;99.90
12384;DHT22;6256;63.808;20.336;2023-02-15T03:57:04;-1.70;99.90
12384;DHT22;6256;63.808;20.336;2023-02-15T03:59:50;-1.80;99.90
12384;DHT22;6256;63.808;20.336;2023-02-15T04:02:40;-1.80;99.90
12384;DHT22;6256;63.808;20.336;2023-02-15T04:05:10;-1.80;99.90
12384;DHT22;6256;63.808;20.336;2023-02-15T04:07:35;-1.90;99.90
12384;DHT22;6256;63.808;20.336;2023-02-15T04:10:01;-1.90;99.90
12384;DHT22;6256;63.808;20.336;2023-02-15T04:12:45;-1.90;99.90
12384;DHT22;6256;63.808;20.336;2023-02-15T04:15:14;-1.90;99.90
12384;DHT22;6256;63.808;20.336;2023-02-15T04:17:59;-1.90;99.90
12384;DHT22;6256;63.808;20.336;2023-02-15T04:20:27;-1.90;99.90
12384;DHT22;6256;63.808;20.336;2023-02-15T04:23:11;-2.00;99.90
12384;DHT22;6256;63.808;20.336;2023-02-15T04:25:55;-2.00;99.90
12384;DHT22;6256;63.808;20.336;2023-02-15T04:28:21;-2.00;99.90
12384;DHT22;6256;63.808;20.336;2023-02-15T04:30:47;-2.10;99.90
12384;DHT22;6256;63.808;20.336;2023-02-15T04:33:13;-2.10;99.90
12384;DHT22;6256;63.808;20.336;2023-02-15T04:35:38;-2.10;99.90
12384;DHT22;6256;63.808;20.336;2023-02-15T04:38:04;-2.20;99.90
12384;DHT22;6256;63.808;20.336;2023-02-15T04:40:30;-2.10;99.90
12384;DHT22;6256;63.808;20.336;2023-02-15T04:42:55;-2.10;99.90
12384;DHT22;6256;63.808;20.336;2023-02-15T04:45:21;-2.10;99.90
12384;DHT22;6256;63.808;20.336;2023-02-15T04:47:47;-2.10;99.90
12384;DHT22;6256;63.808;20.336;2023-02-15T04:50:12;-2.10;99.90
12384;DHT22;6256;63.808;20.336;2023-02-15T04:52:38;-2.10;99.90
12384;DHT22;6256;63.808;20.336;2023-02-15T04:55:05;-2.20;99.90
12384;DHT22;6256;63.808;20.336;2023-02-15T04:57:30;-2.20;99.90
12384;DHT22;6256;63.808;20.336;2023-02-15T04:59:56;-2.20;99.90
12384;DHT22;6256;63.808;20.336;2023-02-15T05:02:24;-2.20;99.90
12384;DHT22;6256;63.808;20.336;2023-02-15T05:04:50;-2.30;99.90
12384;DHT22;6256;63.808;20.336;2023-02-15T05:07:15;-2.20;99.90
12384;DHT22;6256;63.808;20.336;2023-02-15T05:09:41;-2.20;99.90
12384;DHT22;6256;63.808;20.336;2023-02-15T05:12:07;-2.30;99.90
12384;DHT22;6256;63.808;20.336;2023-02-15T05:14:33;-2.30;99.90
12384;DHT22;6256;63.808;20.336;2023-02-15T05:16:58;-2.30;99.90
12384;DHT22;6256;63.808;20.336;2023-02-15T05:19:27;-2.40;99.90
12384;DHT22;6256;63.808;20.336;2023-02-15T05:21:53;-2.40;99.90
12384;DHT22;6256;63.808;20.336;2023-02-15T05:24:19;-2.50;99.90
12384;DHT22;6256;63.808;20.336;2023-02-15T05:27:19;-2.50;99.90
12384;DHT22;6256;63.808;20.336;2023-02-15T05:30:04;-2.50;99.90
12384;DHT22;6256;63.808;20.336;2023-02-15T05:32:29;-2.50;99.90
12384;DHT22;6256;63.808;20.336;2023-02-15T05:34:55;-2.50;99.90
12384;DHT22;6256;63.808;20.336;2023-02-15T05:37:21;-2.50;99.90
12384;DHT22;6256;63.808;20.336;2023-02-15T05:39:46;-2.50;99.90
12384;DHT22;6256;63.808;20.336;2023-02-15T05:42:12;-2.50;99.90
12384;DHT22;6256;63.808;20.336;2023-02-15T05:44:38;-2.50;99.90
12384;DHT22;6256;63.808;20.336;2023-02-15T05:47:03;-2.60;99.90
12384;DHT22;6256;63.808;20.336;2023-02-15T05:49:32;-2.70;99.90
12384;DHT22;6256;63.808;20.336;2023-02-15T05:51:58;-2.70;99.90
12384;DHT22;6256;63.808;20.336;2023-02-15T05:54:23;-2.70;99.90
12384;DHT22;6256;63.808;20.336;2023-02-15T05:56:49;-2.70;99.90
12384;DHT22;6256;63.808;20.336;2023-02-15T05:59:15;-2.70;99.90
12384;DHT22;6256;63.808;20.336;2023-02-15T06:01:41;-2.60;99.90
12384;DHT22;6256;63.808;20.336;2023-02-15T06:04:06;-2.60;99.90
12384;DHT22;6256;63.808;20.336;2023-02-15T06:06:32;-2.50;99.90
12384;DHT22;6256;63.808;20.336;2023-02-15T06:08:59;-2.60;99.90
12384;DHT22;6256;63.808;20.336;2023-02-15T06:11:25;-2.60;99.90
12384;DHT22;6256;63.808;20.336;2023-02-15T06:13:51;-2.70;99.90
12384;DHT22;6256;63.808;20.336;2023-02-15T06:16:17;-2.60;99.90
12384;DHT22;6256;63.808;20.336;2023-02-15T06:18:42;-2.70;99.90
12384;DHT22;6256;63.808;20.336;2023-02-15T06:21:08;-2.70;99.90
12384;DHT22;6256;63.808;20.336;2023-02-15T06:23:34;-2.70;99.90
12384;DHT22;6256;63.808;20.336;2023-02-15T06:25:59;-2.70;99.90
12384;DHT22;6256;63.808;20.336;2023-02-15T06:28:25;-2.60;99.90
12384;DHT22;6256;63.808;20.336;2023-02-15T06:30:51;-2.70;99.90
12384;DHT22;6256;63.808;20.336;2023-02-15T06:33:17;-2.70;99.90
12384;DHT22;6256;63.808;20.336;2023-02-15T06:35:44;-2.60;99.90
12384;DHT22;6256;63.808;20.336;2023-02-15T06:38:09;-2.60;99.90
12384;DHT22;6256;63.808;20.336;2023-02-15T06:40:35;-2.70;99.90
12384;DHT22;6256;63.808;20.336;2023-02-15T06:43:01;-2.70;99.90
12384;DHT22;6256;63.808;20.336;2023-02-15T06:45:27;-2.70;99.90
12384;DHT22;6256;63.808;20.336;2023-02-15T06:47:52;-2.70;99.90
12384;DHT22;6256;63.808;20.336;2023-02-15T06:50:18;-2.70;99.90
12384;DHT22;6256;63.808;20.336;2023-02-15T06:52:44;-2.70;99.90
12384;DHT22;6256;63.808;20.336;2023-02-15T06:55:09;-2.70;99.90
12384;DHT22;6256;63.808;20.336;2023-02-15T06:57:35;-2.70;99.90
12384;DHT22;6256;63.808;20.336;2023-02-15T07:00:01;-2.70;99.90
12384;DHT22;6256;63.808;20.336;2023-02-15T07:02:26;-2.70;99.90
12384;DHT22;6256;63.808;20.336;2023-02-15T07:04:52;-2.60;99.90
12384;DHT22;6256;63.808;20.336;2023-02-15T07:07:19;-2.60;99.90
12384;DHT22;6256;63.808;20.336;2023-02-15T07:09:44;-2.60;99.90
12384;DHT22;6256;63.808;20.336;2023-02-15T07:12:10;-2.60;99.90
12384;DHT22;6256;63.808;20.336;2023-02-15T07:14:54;-2.60;99.90
12384;DHT22;6256;63.808;20.336;2023-02-15T07:17:20;-2.60;99.90
12384;DHT22;6256;63.808;20.336;2023-02-15T07:19:46;-2.50;99.90
12384;DHT22;6256;63.808;20.336;2023-02-15T07:22:11;-2.40;99.90
12384;DHT22;6256;63.808;20.336;2023-02-15T07:24:37;-2.40;99.90
12384;DHT22;6256;63.808;20.336;2023-02-15T07:27:03;-2.40;99.90
12384;DHT22;6256;63.808;20.336;2023-02-15T07:29:28;-2.40;99.90
12384;DHT22;6256;63.808;20.336;2023-02-15T07:31:55;-2.40;99.90
12384;DHT22;6256;63.808;20.336;2023-02-15T07:34:20;-2.40;99.90
12384;DHT22;6256;63.808;20.336;2023-02-15T07:36:46;-2.40;99.90
12384;DHT22;6256;63.808;20.336;2023-02-15T07:39:12;-2.30;99.90
12384;DHT22;6256;63.808;20.336;2023-02-15T07:41:38;-2.30;99.90
12384;DHT22;6256;63.808;20.336;2023-02-15T07:44:04;-2.20;99.90
12384;DHT22;6256;63.808;20.336;2023-02-15T07:46:29;-2.20;99.90
12384;DHT22;6256;63.808;20.336;2023-02-15T07:48:55;-2.20;99.90
12384;DHT22;6256;63.808;20.336;2023-02-15T07:51:21;-2.20;99.90
12384;DHT22;6256;63.808;20.336;2023-02-15T07:53:47;-2.10;99.90
12384;DHT22;6256;63.808;20.336;2023-02-15T07:56:14;-2.10;99.90
12384;DHT22;6256;63.808;20.336;2023-02-15T07:58:40;-2.10;99.90
12384;DHT22;6256;63.808;20.336;2023-02-15T08:01:19;-2.00;99.90
12384;DHT22;6256;63.808;20.336;2023-02-15T08:03:46;-1.90;99.90
12384;DHT22;6256;63.808;20.336;2023-02-15T08:06:12;-1.90;99.90
12384;DHT22;6256;63.808;20.336;2023-02-15T08:08:39;-1.90;99.90
12384;DHT22;6256;63.808;20.336;2023-02-15T08:11:24;-1.80;99.90
12384;DHT22;6256;63.808;20.336;2023-02-15T08:14:17;-1.80;99.90
12384;DHT22;6256;63.808;20.336;2023-02-15T08:16:51;-1.70;99.90
12384;DHT22;6256;63.808;20.336;2023-02-15T08:21:46;-1.60;99.90
12384;DHT22;6256;63.808;20.336;2023-02-15T08:24:13;-1.60;99.90
12384;DHT22;6256;63.808;20.336;2023-02-15T08:26:40;-1.60;99.90
12384;DHT22;6256;63.808;20.336;2023-02-15T08:29:07;-1.50;99.90
12384;DHT22;6256;63.808;20.336;2023-02-15T08:31:33;-1.50;99.90
12384;DHT22;6256;63.808;20.336;2023-02-15T08:33:59;-1.40;99.90
12384;DHT22;6256;63.808;20.336;2023-02-15T08:36:28;-1.40;99.90
12384;DHT22;6256;63.808;20.336;2023-02-15T08:38:54;-1.40;99.90
12384;DHT22;6256;63.808;20.336;2023-02-15T08:41:31;-1.30;99.90
12384;DHT22;6256;63.808;20.336;2023-02-15T08:43:59;-1.30;99.90
12384;DHT22;6256;63.808;20.336;2023-02-15T08:46:27;-1.20;99.90
12384;DHT22;6256;63.808;20.336;2023-02-15T08:48:54;-1.00;99.90
12384;DHT22;6256;63.808;20.336;2023-02-15T08:51:22;-1.00;99.90
12384;DHT22;6256;63.808;20.336;2023-02-15T08:53:50;-0.90;99.90
12384;DHT22;6256;63.808;20.336;2023-02-15T08:56:17;-0.80;99.90
12384;DHT22;6256;63.808;20.336;2023-02-15T08:58:43;-0.70;99.90
12384;DHT22;6256;63.808;20.336;2023-02-15T09:01:15;-0.70;99.90
12384;DHT22;6256;63.808;20.336;2023-02-15T09:03:45;-0.60;99.90
12384;DHT22;6256;63.808;20.336;2023-02-15T09:06:11;-0.50;99.90
12384;DHT22;6256;63.808;20.336;2023-02-15T09:08:37;-0.50;99.90
12384;DHT22;6256;63.808;20.336;2023-02-15T09:11:08;-0.40;99.90
12384;DHT22;6256;63.808;20.336;2023-02-15T09:13:35;-0.40;99.90
12384;DHT22;6256;63.808;20.336;2023-02-15T09:16:06;-0.30;99.90
12384;DHT22;6256;63.808;20.336;2023-02-15T09:18:34;-0.20;99.90
12384;DHT22;6256;63.808;20.336;2023-02-15T09:21:10;-0.10;99.90
12384;DHT22;6256;63.808;20.336;2023-02-15T09:23:36;0.00;99.90
12384;DHT22;6256;63.808;20.336;2023-02-15T09:26:04;0.10;99.90
12384;DHT22;6256;63.808;20.336;2023-02-15T09:28:30;0.10;99.90
12384;DHT22;6256;63.808;20.336;2023-02-15T09:31:13;0.30;99.90
12384;DHT22;6256;63.808;20.336;2023-02-15T09:33:41;0.40;99.90
12384;DHT22;6256;63.808;20.336;2023-02-15T09:38:40;0.50;99.90
12384;DHT22;6256;63.808;20.336;2023-02-15T09:44:01;0.70;99.90
12384;DHT22;6256;63.808;20.336;2023-02-15T09:52:52;1.00;99.90
12384;DHT22;6256;63.808;20.336;2023-02-15T10:00:58;1.20;99.90
12384;DHT22;6256;63.808;20.336;2023-02-15T10:11:52;1.70;99.90
12384;DHT22;6256;63.808;20.336;2023-02-15T10:28:05;2.50;99.90
12384;DHT22;6256;63.808;20.336;2023-02-15T10:33:33;3.00;99.90
12384;DHT22;6256;63.808;20.336;2023-02-15T10:55:18;3.60;99.90
12384;DHT22;6256;63.808;20.336;2023-02-15T10:57:55;3.50;99.90
12384;DHT22;6256;63.808;20.336;2023-02-15T11:00:33;3.50;99.90
12384;DHT22;6256;63.808;20.336;2023-02-15T11:06:04;4.00;99.90
12384;DHT22;6256;63.808;20.336;2023-02-15T11:08:34;4.20;99.90
12384;DHT22;6256;63.808;20.336;2023-02-15T11:11:07;4.50;99.90
12384;DHT22;6256;63.808;20.336;2023-02-15T11:13:38;4.80;99.90
12384;DHT22;6256;63.808;20.336;2023-02-15T11:16:21;5.10;99.90
12384;DHT22;6256;63.808;20.336;2023-02-15T11:18:54;5.50;99.90
12384;DHT22;6256;63.808;20.336;2023-02-15T11:21:28;5.80;99.90
12384;DHT22;6256;63.808;20.336;2023-02-15T11:23:55;6.10;99.90
12384;DHT22;6256;63.808;20.336;2023-02-15T11:26:27;6.40;99.90
12384;DHT22;6256;63.808;20.336;2023-02-15T11:30:04;6.70;99.90
12384;DHT22;6256;63.808;20.336;2023-02-15T11:35:04;7.00;99.90
12384;DHT22;6256;63.808;20.336;2023-02-15T11:37:46;7.30;99.90
12384;DHT22;6256;63.808;20.336;2023-02-15T11:42:47;7.80;99.90
12384;DHT22;6256;63.808;20.336;2023-02-15T11:45:29;8.10;99.90
12384;DHT22;6256;63.808;20.336;2023-02-15T11:47:57;8.20;99.90
12384;DHT22;6256;63.808;20.336;2023-02-15T11:50:28;8.20;99.90
12384;DHT22;6256;63.808;20.336;2023-02-15T11:55:57;8.60;99.90
12384;DHT22;6256;63.808;20.336;2023-02-15T12:03:49;9.00;99.90
12384;DHT22;6256;63.808;20.336;2023-02-15T12:06:27;8.80;99.90
12384;DHT22;6256;63.808;20.336;2023-02-15T12:11:47;8.70;99.90
12384;DHT22;6256;63.808;20.336;2023-02-15T12:14:13;8.60;99.90
12384;DHT22;6256;63.808;20.336;2023-02-15T12:19:34;8.20;99.90
12384;DHT22;6256;63.808;20.336;2023-02-15T12:22:03;8.10;99.90
12384;DHT22;6256;63.808;20.336;2023-02-15T12:24:34;7.90;99.90
12384;DHT22;6256;63.808;20.336;2023-02-15T12:27:06;7.70;99.90
12384;DHT22;6256;63.808;20.336;2023-02-15T12:29:48;7.20;99.90
12384;DHT22;6256;63.808;20.336;2023-02-15T12:32:22;6.60;99.90
12384;DHT22;6256;63.808;20.336;2023-02-15T12:34:48;6.10;99.90
12384;DHT22;6256;63.808;20.336;2023-02-15T12:37:27;5.60;99.90
12384;DHT22;6256;63.808;20.336;2023-02-15T12:39:59;5.20;99.90
12384;DHT22;6256;63.808;20.336;2023-02-15T12:42:27;5.00;99.90
12384;DHT22;6256;63.808;20.336;2023-02-15T12:45:08;4.80;99.90
12384;DHT22;6256;63.808;20.336;2023-02-15T12:47:44;4.50;99.90
12384;DHT22;6256;63.808;20.336;2023-02-15T12:50:21;4.10;99.90
12384;DHT22;6256;63.808;20.336;2023-02-15T12:52:49;3.90;99.90
12384;DHT22;6256;63.808;20.336;2023-02-15T12:55:23;3.40;99.90
12384;DHT22;6256;63.808;20.336;2023-02-15T12:57:49;3.20;99.90
12384;DHT22;6256;63.808;20.336;2023-02-15T13:00:29;3.10;99.90
12384;DHT22;6256;63.808;20.336;2023-02-15T13:02:58;3.10;99.90
12384;DHT22;6256;63.808;20.336;2023-02-15T13:05:36;2.90;99.90
12384;DHT22;6256;63.808;20.336;2023-02-15T13:08:13;2.90;99.90
12384;DHT22;6256;63.808;20.336;2023-02-15T13:10:53;2.50;99.90
12384;DHT22;6256;63.808;20.336;2023-02-15T13:13:23;2.40;99.90
12384;DHT22;6256;63.808;20.336;2023-02-15T13:15:58;2.40;99.90
12384;DHT22;6256;63.808;20.336;2023-02-15T13:18:41;2.30;99.90
12384;DHT22;6256;63.808;20.336;2023-02-15T13:21:15;2.10;99.90
12384;DHT22;6256;63.808;20.336;2023-02-15T13:23:48;2.10;99.90
12384;DHT22;6256;63.808;20.336;2023-02-15T13:26:19;1.90;99.90
12384;DHT22;6256;63.808;20.336;2023-02-15T13:28:51;1.90;99.90
12384;DHT22;6256;63.808;20.336;2023-02-15T13:31:20;1.80;99.90
12384;DHT22;6256;63.808;20.336;2023-02-15T13:34:16;1.80;99.90
12384;DHT22;6256;63.808;20.336;2023-02-15T13:55:52;1.70;99.90
12384;DHT22;6256;63.808;20.336;2023-02-15T14:04:25;1.30;99.90
12384;DHT22;6256;63.808;20.336;2023-02-15T14:07:08;1.20;99.90
12384;DHT22;6256;63.808;20.336;2023-02-15T14:17:51;1.10;99.90
12384;DHT22;6256;63.808;20.336;2023-02-15T14:22:54;1.10;99.90
12384;DHT22;6256;63.808;20.336;2023-02-15T14:28:27;1.00;99.90
12384;DHT22;6256;63.808;20.336;2023-02-15T14:30:56;1.00;99.90
12384;DHT22;6256;63.808;20.336;2023-02-15T14:33:37;0.90;99.90
12384;DHT22;6256;63.808;20.336;2023-02-15T14:36:06;0.80;99.90
12384;DHT22;6256;63.808;20.336;2023-02-15T14:42:08;0.80;99.90
12384;DHT22;6256;63.808;20.336;2023-02-15T14:44:47;0.70;99.90
12384;DHT22;6256;63.808;20.336;2023-02-15T14:47:26;0.60;99.90
12384;DHT22;6256;63.808;20.336;2023-02-15T14:49:56;0.60;99.90
12384;DHT22;6256;63.808;20.336;2023-02-15T14:52:21;0.60;99.90
12384;DHT22;6256;63.808;20.336;2023-02-15T15:00:01;0.50;99.90
12384;DHT22;6256;63.808;20.336;2023-02-15T15:02:51;0.40;99.90
12384;DHT22;6256;63.808;20.336;2023-02-15T15:05:24;0.40;99.90
12384;DHT22;6256;63.808;20.336;2023-02-15T15:07:57;0.40;99.90
12384;DHT22;6256;63.808;20.336;2023-02-15T15:10:37;0.40;99.90
12384;DHT22;6256;63.808;20.336;2023-02-15T15:13:36;0.30;99.90
12384;DHT22;6256;63.808;20.336;2023-02-15T15:19:05;0.30;99.90
12384;DHT22;6256;63.808;20.336;2023-02-15T15:35:55;0.30;99.90
12384;DHT22;6256;63.808;20.336;2023-02-15T15:49:14;0.30;99.90
12384;DHT22;6256;63.808;20.336;2023-02-15T15:51:42;0.40;99.90
12384;DHT22;6256;63.808;20.336;2023-02-15T15:54:15;0.40;99.90
12384;DHT22;6256;63.808;20.336;2023-02-15T15:56:46;0.40;99.90
12384;DHT22;6256;63.808;20.336;2023-02-15T15:59:24;0.40;99.90
12384;DHT22;6256;63.808;20.336;2023-02-15T16:01:51;0.40;99.90
12384;DHT22;6256;63.808;20.336;2023-02-15T16:04:26;0.30;99.90
12384;DHT22;6256;63.808;20.336;2023-02-15T16:06:52;0.40;99.90
12384;DHT22;6256;63.808;20.336;2023-02-15T16:09:21;0.40;99.90
12384;DHT22;6256;63.808;20.336;2023-02-15T16:11:50;0.40;99.90
12384;DHT22;6256;63.808;20.336;2023-02-15T16:14:30;0.40;99.90
12384;DHT22;6256;63.808;20.336;2023-02-15T16:16:59;0.30;99.90
12384;DHT22;6256;63.808;20.336;2023-02-15T16:19:44;0.30;99.90
12384;DHT22;6256;63.808;20.336;2023-02-15T16:22:30;0.20;99.90
12384;DHT22;6256;63.808;20.336;2023-02-15T16:25:13;0.20;99.90
12384;DHT22;6256;63.808;20.336;2023-02-15T16:27:44;0.20;99.90
12384;DHT22;6256;63.808;20.336;2023-02-15T16:30:33;0.20;99.90
12384;DHT22;6256;63.808;20.336;2023-02-15T16:35:31;0.10;99.90
12384;DHT22;6256;63.808;20.336;2023-02-15T16:37:58;0.00;99.90
12384;DHT22;6256;63.808;20.336;2023-02-15T16:42:55;0.10;99.90
12384;DHT22;6256;63.808;20.336;2023-02-15T16:45:23;0.10;99.90
12384;DHT22;6256;63.808;20.336;2023-02-15T16:47:54;0.10;99.90
12384;DHT22;6256;63.808;20.336;2023-02-15T16:50:29;0.10;99.90
12384;DHT22;6256;63.808;20.336;2023-02-15T16:52:56;0.10;99.90
12384;DHT22;6256;63.808;20.336;2023-02-15T16:55:28;0.10;99.90
12384;DHT22;6256;63.808;20.336;2023-02-15T16:58:01;0.20;99.90
12384;DHT22;6256;63.808;20.336;2023-02-15T17:00:35;0.20;99.90
12384;DHT22;6256;63.808;20.336;2023-02-15T17:05:40;0.20;99.90
12384;DHT22;6256;63.808;20.336;2023-02-15T17:13:29;0.20;99.90
12384;DHT22;6256;63.808;20.336;2023-02-15T17:18:46;0.30;99.90
12384;DHT22;6256;63.808;20.336;2023-02-15T17:21:26;0.30;99.90
12384;DHT22;6256;63.808;20.336;2023-02-15T17:23:58;0.30;99.90
12384;DHT22;6256;63.808;20.336;2023-02-15T17:26:36;0.40;99.90
12384;DHT22;6256;63.808;20.336;2023-02-15T17:29:19;0.40;99.90
12384;DHT22;6256;63.808;20.336;2023-02-15T17:31:48;0.40;99.90
12384;DHT22;6256;63.808;20.336;2023-02-15T17:34:41;0.40;99.90
12384;DHT22;6256;63.808;20.336;2023-02-15T17:39:48;0.40;99.90
12384;DHT22;6256;63.808;20.336;2023-02-15T17:42:14;0.40;99.90
12384;DHT22;6256;63.808;20.336;2023-02-15T17:44:39;0.50;99.90
12384;DHT22;6256;63.808;20.336;2023-02-15T17:47:05;0.40;99.90
12384;DHT22;6256;63.808;20.336;2023-02-15T17:49:31;0.50;99.90
12384;DHT22;6256;63.808;20.336;2023-02-15T17:52:01;0.50;99.90
12384;DHT22;6256;63.808;20.336;2023-02-15T17:54:27;0.50;99.90
12384;DHT22;6256;63.808;20.336;2023-02-15T17:57:13;0.50;99.90
12384;DHT22;6256;63.808;20.336;2023-02-15T17:59:39;0.50;99.90
12384;DHT22;6256;63.808;20.336;2023-02-15T18:02:24;0.50;99.90
12384;DHT22;6256;63.808;20.336;2023-02-15T18:05:13;0.50;99.90
12384;DHT22;6256;63.808;20.336;2023-02-15T18:07:57;0.50;99.90
12384;DHT22;6256;63.808;20.336;2023-02-15T18:10:42;0.60;99.90
12384;DHT22;6256;63.808;20.336;2023-02-15T18:13:26;0.60;99.90
12384;DHT22;6256;63.808;20.336;2023-02-15T18:15:52;0.60;99.90
12384;DHT22;6256;63.808;20.336;2023-02-15T18:18:17;0.60;99.90
12384;DHT22;6256;63.808;20.336;2023-02-15T18:20:43;0.60;99.90
12384;DHT22;6256;63.808;20.336;2023-02-15T18:23:15;0.60;99.90
12384;DHT22;6256;63.808;20.336;2023-02-15T18:25:41;0.60;99.90
12384;DHT22;6256;63.808;20.336;2023-02-15T18:28:10;0.70;99.90
12384;DHT22;6256;63.808;20.336;2023-02-15T18:30:39;0.70;99.90
12384;DHT22;6256;63.808;20.336;2023-02-15T18:33:23;0.70;99.90
12384;DHT22;6256;63.808;20.336;2023-02-15T18:35:50;0.70;99.90
12384;DHT22;6256;63.808;20.336;2023-02-15T18:38:16;0.80;99.90
12384;DHT22;6256;63.808;20.336;2023-02-15T18:40:44;0.80;99.90
12384;DHT22;6256;63.808;20.336;2023-02-15T18:43:13;0.80;99.90
12384;DHT22;6256;63.808;20.336;2023-02-15T18:45:39;0.80;99.90
12384;DHT22;6256;63.808;20.336;2023-02-15T18:48:06;0.80;99.90
12384;DHT22;6256;63.808;20.336;2023-02-15T18:50:35;0.80;99.90
12384;DHT22;6256;63.808;20.336;2023-02-15T18:53:05;0.90;99.90
12384;DHT22;6256;63.808;20.336;2023-02-15T18:55:32;0.90;99.90
12384;DHT22;6256;63.808;20.336;2023-02-15T18:58:00;0.90;99.90
12384;DHT22;6256;63.808;20.336;2023-02-15T19:00:33;0.90;99.90
12384;DHT22;6256;63.808;20.336;2023-02-15T19:02:59;0.90;99.90
12384;DHT22;6256;63.808;20.336;2023-02-15T19:05:28;0.90;99.90
12384;DHT22;6256;63.808;20.336;2023-02-15T19:07:55;0.90;99.90
12384;DHT22;6256;63.808;20.336;2023-02-15T19:10:23;0.90;99.90
12384;DHT22;6256;63.808;20.336;2023-02-15T19:12:49;0.90;99.90
12384;DHT22;6256;63.808;20.336;2023-02-15T19:15:18;0.90;99.90
12384;DHT22;6256;63.808;20.336;2023-02-15T19:17:45;0.90;99.90
12384;DHT22;6256;63.808;20.336;2023-02-15T19:20:19;0.90;99.90
12384;DHT22;6256;63.808;20.336;2023-02-15T19:22:49;0.90;99.90
12384;DHT22;6256;63.808;20.336;2023-02-15T19:25:24;1.00;99.90
12384;DHT22;6256;63.808;20.336;2023-02-15T19:27:51;1.00;99.90
12384;DHT22;6256;63.808;20.336;2023-02-15T19:30:21;0.90;99.90
12384;DHT22;6256;63.808;20.336;2023-02-15T19:32:50;1.00;99.90
12384;DHT22;6256;63.808;20.336;2023-02-15T19:35:18;0.90;99.90
12384;DHT22;6256;63.808;20.336;2023-02-15T19:37:55;0.90;99.90
12384;DHT22;6256;63.808;20.336;2023-02-15T19:40:28;1.00;99.90
12384;DHT22;6256;63.808;20.336;2023-02-15T19:42:54;1.00;99.90